Time;durP1;ratioP1;P1;durP2;ratioP2;P2;SDS_P1;SDS_P2;PMS_P1;PMS_P2;Temp;Humidity;BMP_temperature;BMP_pressure;BME280_temperature;BME280_humidity;BME280_pressure;Samples;Min_cycle;Max_cycle;Signal;HPM_P1;HPM_P2
2022/01/15 00:01:18;;;;;;;41.92;15.20;;;2.30;99.90;;;;;;7224147;32;20198;-79
2022/01/15 00:05:21;;;;;;;43.17;15.27;;;2.30;99.90;;;;;;7219337;32;20117;-78
2022/01/15 00:09:23;;;;;;;40.30;15.15;;;2.20;99.90;;;;;;7223630;32;22030;-78
2022/01/15 00:13:30;;;;;;;45.47;15.35;;;2.20;99.90;;;;;;7222891;32;20543;-80
2022/01/15 00:17:46;;;;;;;;;;;2.20;99.90;;;;;;7234149;32;20178;-79
2022/01/15 00:21:48;;;;;;;41.28;15.00;;;2.30;99.90;;;;;;7220193;32;20024;-78
2022/01/15 00:25:50;;;;;;;45.97;15.07;;;2.20;99.90;;;;;;7204589;32;20186;-78
2022/01/15 00:29:52;;;;;;;41.75;16.48;;;2.20;99.90;;;;;;7239285;32;20143;-78
2022/01/15 00:33:56;;;;;;;46.53;16.80;;;2.20;99.90;;;;;;7233669;32;20271;-78
2022/01/15 00:37:58;;;;;;;45.33;16.25;;;2.30;99.90;;;;;;7208052;32;20113;-79
2022/01/15 00:42:00;;;;;;;39.30;14.43;;;2.40;99.90;;;;;;7235091;32;20129;-78
2022/01/15 00:46:03;;;;;;;44.80;14.43;;;2.40;99.90;;;;;;7236148;32;20211;-79
2022/01/15 00:50:07;;;;;;;36.67;12.98;;;2.50;99.90;;;;;;7222221;32;20137;-78
2022/01/15 00:54:10;;;;;;;41.53;14.23;;;2.60;99.90;;;;;;7224048;32;20222;-78
2022/01/15 00:58:13;;;;;;;37.30;13.70;;;2.60;99.90;;;;;;7223399;32;20148;-79
2022/01/15 01:02:17;;;;;;;39.67;14.23;;;2.60;99.90;;;;;;7232655;32;20280;-78
2022/01/15 01:06:20;;;;;;;34.03;12.95;;;2.50;99.90;;;;;;7222268;32;20130;-79
2022/01/15 01:23:17;;;;;;;37.30;13.20;;;2.60;99.90;;;;;;7257127;32;20090;-79
2022/01/15 01:27:28;;;;;;;36.28;13.23;;;2.70;99.90;;;;;;7227655;32;20162;-78
2022/01/15 01:31:39;;;;;;;36.42;13.20;;;2.70;99.90;;;;;;7231909;32;20550;-79
2022/01/15 01:35:45;;;;;;;28.45;11.93;;;2.70;99.90;;;;;;7213592;32;20456;-78
2022/01/15 01:39:52;;;;;;;33.87;12.23;;;2.70;99.90;;;;;;7227967;32;20826;-78
2022/01/15 01:43:59;;;;;;;27.95;11.23;;;2.70;99.90;;;;;;7232852;32;20129;-76
2022/01/15 01:48:01;;;;;;;32.35;10.85;;;2.70;99.90;;;;;;7233450;32;20113;-78
2022/01/15 01:52:03;;;;;;;29.25;12.55;;;2.80;99.90;;;;;;7220346;32;20183;-79
2022/01/15 01:56:05;;;;;;;28.85;11.20;;;2.80;99.90;;;;;;7235387;32;20169;-78
2022/01/15 02:00:09;;;;;;;33.38;12.73;;;2.80;99.90;;;;;;7217026;32;20195;-79
2022/01/15 02:04:11;;;;;;;30.58;11.45;;;2.80;99.90;;;;;;7219505;32;20562;-78
2022/01/15 02:08:14;;;;;;;31.40;11.68;;;2.70;99.90;;;;;;7216248;32;20243;-78
2022/01/15 02:12:16;;;;;;;30.20;11.93;;;2.70;99.90;;;;;;7217556;32;20920;-77
2022/01/15 02:16:18;;;;;;;34.58;11.82;;;2.80;99.90;;;;;;7222069;32;20129;-78
2022/01/15 02:24:33;;;;;;;31.40;11.43;;;2.80;99.90;;;;;;7237732;32;20121;-79
2022/01/15 02:28:39;;;;;;;32.03;12.10;;;2.90;99.90;;;;;;7225996;32;20204;-78
2022/01/15 02:32:55;;;;;;;26.83;11.05;;;2.90;99.90;;;;;;7218273;32;20578;-78
2022/01/15 02:36:56;;;;;;;30.20;12.05;;;3.00;99.90;;;;;;7222067;32;20212;-79
2022/01/15 02:40:58;;;;;;;17.23;8.20;;;2.90;99.90;;;;;;7225457;32;20141;-77
2022/01/15 02:45:01;;;;;;;16.42;7.93;;;2.70;99.90;;;;;;7216921;32;20186;-77
2022/01/15 02:49:05;;;;;;;18.50;8.45;;;2.60;99.90;;;;;;7217805;32;20135;-77
2022/01/15 02:53:09;;;;;;;18.77;8.10;;;2.60;99.90;;;;;;7230524;32;20585;-77
2022/01/15 02:57:10;;;;;;;19.05;9.40;;;2.60;99.90;;;;;;7228534;32;20185;-78
2022/01/15 03:01:12;;;;;;;22.98;10.00;;;2.80;99.90;;;;;;7224368;32;20196;-78
2022/01/15 03:05:14;;;;;;;24.80;10.73;;;2.80;99.90;;;;;;7213561;32;20109;-78
2022/01/15 03:09:16;;;;;;;21.75;9.75;;;2.90;99.90;;;;;;7223837;32;20236;-77
2022/01/15 03:13:18;;;;;;;21.00;9.10;;;2.90;99.90;;;;;;7198344;32;20128;-77
2022/01/15 03:17:19;;;;;;;18.67;9.10;;;2.90;99.90;;;;;;7226828;32;20267;-78
2022/01/15 03:21:21;;;;;;;17.87;8.20;;;3.00;99.90;;;;;;7227609;32;20219;-78
2022/01/15 03:25:23;;;;;;;19.60;8.93;;;3.00;99.90;;;;;;7226784;32;20501;-78
2022/01/15 03:29:25;;;;;;;15.55;8.30;;;3.10;99.90;;;;;;7200782;32;20220;-77
2022/01/15 03:33:27;;;;;;;16.98;8.50;;;3.00;99.90;;;;;;7211830;32;20139;-78
2022/01/15 03:37:28;;;;;;;23.60;9.88;;;3.10;99.90;;;;;;7222070;32;20121;-78
2022/01/15 03:41:30;;;;;;;20.40;9.20;;;3.00;99.90;;;;;;7228802;32;20168;-78
2022/01/15 03:45:33;;;;;;;18.62;8.65;;;3.00;99.90;;;;;;7204292;32;20139;-77
2022/01/15 03:49:35;;;;;;;17.17;7.93;;;2.90;99.90;;;;;;7226988;32;20118;-78
2022/01/15 03:53:37;;;;;;;16.02;7.68;;;2.80;99.90;;;;;;7204506;32;20651;-77
2022/01/15 03:57:40;;;;;;;14.10;6.12;;;2.90;99.90;;;;;;7218748;32;20714;-78
2022/01/15 04:01:41;;;;;;;14.75;7.25;;;2.80;99.90;;;;;;7216706;32;20566;-77
2022/01/15 04:05:43;;;;;;;14.57;6.72;;;2.90;99.90;;;;;;7232786;32;20125;-77
2022/01/15 04:09:45;;;;;;;13.48;6.47;;;2.80;99.90;;;;;;7219824;32;20476;-77
2022/01/15 04:13:47;;;;;;;13.13;7.00;;;2.50;99.90;;;;;;7232159;32;20118;-78
2022/01/15 04:17:50;;;;;;;18.67;9.18;;;2.40;99.90;;;;;;7216936;32;20568;-78
2022/01/15 04:21:51;;;;;;;20.42;9.23;;;2.70;99.90;;;;;;7220600;32;20144;-78
2022/01/15 04:25:53;;;;;;;18.55;8.55;;;2.50;99.90;;;;;;7216993;32;20144;-77
2022/01/15 04:29:56;;;;;;;14.20;7.47;;;2.50;99.90;;;;;;7221361;32;20116;-78
2022/01/15 04:33:58;;;;;;;14.10;8.07;;;2.40;99.90;;;;;;7234730;32;20140;-77
2022/01/15 04:38:05;;;;;;;15.23;7.90;;;2.30;99.90;;;;;;7234236;32;20156;-78
2022/01/15 04:42:10;;;;;;;14.23;7.85;;;2.10;99.90;;;;;;7224231;32;20177;-77
2022/01/15 04:46:12;;;;;;;19.62;9.43;;;2.10;99.90;;;;;;7223940;32;20171;-77
2022/01/15 04:50:17;;;;;;;17.05;8.20;;;2.20;99.90;;;;;;7212132;32;20129;-77
2022/01/15 04:54:19;;;;;;;14.98;7.75;;;2.20;99.90;;;;;;7216160;32;20137;-78
2022/01/15 04:58:21;;;;;;;17.23;8.45;;;2.20;99.90;;;;;;7220150;32;20526;-77
2022/01/15 05:02:22;;;;;;;16.50;8.93;;;2.00;99.90;;;;;;7215011;32;20128;-77
2022/01/15 05:06:24;;;;;;;17.83;7.97;;;2.10;99.90;;;;;;7233435;32;20505;-77
2022/01/15 05:10:28;;;;;;;14.68;8.63;;;2.10;99.90;;;;;;7212160;32;20357;-80
2022/01/15 05:14:30;;;;;;;13.93;7.20;;;2.00;99.90;;;;;;7252011;32;20166;-77
2022/01/15 05:18:32;;;;;;;14.95;7.75;;;2.10;99.90;;;;;;7211737;32;20131;-78
2022/01/15 05:22:34;;;;;;;16.30;8.25;;;2.10;99.90;;;;;;7231144;32;20109;-78
2022/01/15 05:26:36;;;;;;;18.83;9.38;;;1.80;99.90;;;;;;7215934;32;20261;-77
2022/01/15 05:30:38;;;;;;;14.93;8.82;;;1.90;99.90;;;;;;7232189;32;20168;-78
2022/01/15 05:34:40;;;;;;;16.30;8.48;;;1.90;99.90;;;;;;7216482;32;20137;-77
2022/01/15 05:38:42;;;;;;;19.15;10.10;;;2.00;99.90;;;;;;7210108;32;20122;-78
2022/01/15 05:42:44;;;;;;;19.02;10.48;;;1.90;99.90;;;;;;7230803;32;20673;-78
2022/01/15 05:46:46;;;;;;;19.27;9.75;;;1.80;99.90;;;;;;7219595;32;20605;-78
2022/01/15 05:50:48;;;;;;;20.65;10.38;;;1.80;99.90;;;;;;7219618;32;20212;-76
2022/01/15 05:54:50;;;;;;;24.50;10.32;;;1.80;99.90;;;;;;7219082;32;20136;-76
2022/01/15 05:58:51;;;;;;;22.23;10.50;;;1.80;99.90;;;;;;7229218;32;20112;-76
2022/01/15 06:02:53;;;;;;;22.35;11.35;;;1.70;99.90;;;;;;7219488;32;20219;-77
2022/01/15 06:06:55;;;;;;;20.65;10.35;;;1.80;99.90;;;;;;7232539;32;20109;-76
2022/01/15 06:10:57;;;;;;;21.75;10.43;;;1.70;99.90;;;;;;7226518;32;21080;-76
2022/01/15 06:14:59;;;;;;;22.02;10.50;;;1.80;99.90;;;;;;7229120;32;20154;-77
2022/01/15 06:19:00;;;;;;;24.17;11.40;;;1.80;99.90;;;;;;7217735;32;20192;-76
2022/01/15 06:23:02;;;;;;;23.87;11.55;;;1.90;99.90;;;;;;7217715;32;20108;-77
2022/01/15 06:27:04;;;;;;;28.08;11.90;;;1.80;99.90;;;;;;7230592;32;20132;-76
2022/01/15 06:31:06;;;;;;;24.50;11.80;;;1.70;99.90;;;;;;7227738;32;20207;-77
2022/01/15 06:35:11;;;;;;;28.60;12.05;;;1.70;99.90;;;;;;7215556;32;20106;-76
2022/01/15 06:39:13;;;;;;;23.60;11.65;;;1.70;99.90;;;;;;7213884;32;20223;-78
2022/01/15 06:43:14;;;;;;;26.10;12.15;;;1.70;99.90;;;;;;7211041;32;20183;-76
2022/01/15 06:47:16;;;;;;;25.45;11.43;;;1.60;99.90;;;;;;7226424;32;20272;-77
2022/01/15 06:51:18;;;;;;;23.90;11.02;;;1.60;99.90;;;;;;7214099;32;20135;-77
2022/01/15 06:55:20;;;;;;;25.17;12.27;;;1.70;99.90;;;;;;7229579;32;20117;-76
2022/01/15 06:59:22;;;;;;;24.75;11.90;;;1.70;99.90;;;;;;7221536;32;20147;-76
2022/01/15 07:03:24;;;;;;;25.75;12.70;;;1.80;99.90;;;;;;7217000;32;20278;-77
2022/01/15 07:07:26;;;;;;;27.75;12.60;;;1.70;99.90;;;;;;7227132;32;20290;-77
2022/01/15 07:11:28;;;;;;;28.42;13.07;;;1.80;99.90;;;;;;7234153;32;20180;-76
2022/01/15 07:15:30;;;;;;;24.42;12.73;;;1.80;99.90;;;;;;7232771;32;21127;-77
2022/01/15 07:19:32;;;;;;;27.75;12.07;;;1.90;99.90;;;;;;7234276;32;20216;-77
2022/01/15 07:23:34;;;;;;;24.35;12.85;;;1.80;99.90;;;;;;7207011;32;20128;-77
2022/01/15 07:27:44;;;;;;;26.00;12.63;;;1.90;99.90;;;;;;7240951;32;20120;-77
2022/01/15 07:31:47;;;;;;;26.50;12.75;;;1.90;99.90;;;;;;7236560;32;20131;-76
2022/01/15 07:35:49;;;;;;;22.27;11.77;;;1.90;99.90;;;;;;7214362;32;20730;-76
2022/01/15 07:39:52;;;;;;;22.10;10.73;;;2.00;99.90;;;;;;7234460;32;20125;-76
2022/01/15 07:43:54;;;;;;;20.65;10.75;;;2.00;99.90;;;;;;7219260;32;20139;-76
2022/01/15 07:47:56;;;;;;;22.30;11.80;;;2.10;99.90;;;;;;7233746;32;20200;-76
2022/01/15 07:51:58;;;;;;;23.55;11.57;;;2.00;99.90;;;;;;7224269;32;20558;-76
2022/01/15 07:56:00;;;;;;;25.17;11.82;;;2.00;99.90;;;;;;7230922;32;20601;-77
2022/01/15 08:00:03;;;;;;;23.40;10.90;;;2.00;99.90;;;;;;7217850;32;20139;-77
2022/01/15 08:04:05;;;;;;;25.23;11.75;;;1.90;99.90;;;;;;7219209;32;20178;-76
2022/01/15 08:08:07;;;;;;;20.88;10.38;;;2.00;99.90;;;;;;7228947;32;20274;-76
2022/01/15 08:12:09;;;;;;;22.85;11.02;;;2.10;99.90;;;;;;7219830;32;20116;-76
2022/01/15 08:16:11;;;;;;;18.98;9.98;;;2.20;99.90;;;;;;7218224;32;20143;-76
2022/01/15 08:20:14;;;;;;;21.30;10.82;;;2.20;99.90;;;;;;7237944;32;20142;-76
2022/01/15 08:24:16;;;;;;;21.98;10.82;;;2.00;99.90;;;;;;7237148;32;20116;-76
2022/01/15 08:28:19;;;;;;;23.33;11.20;;;2.10;99.90;;;;;;7230083;32;20836;-77
2022/01/15 08:32:20;;;;;;;22.95;11.43;;;2.10;99.90;;;;;;7231950;32;20144;-75
2022/01/15 08:36:22;;;;;;;24.12;10.90;;;2.20;99.90;;;;;;7227529;32;20109;-75
2022/01/15 08:40:24;;;;;;;21.17;10.80;;;2.20;99.90;;;;;;7216984;32;20214;-76
2022/01/15 08:44:26;;;;;;;20.75;11.30;;;2.20;99.90;;;;;;7234107;32;20187;-76
2022/01/15 08:48:28;;;;;;;19.48;10.52;;;2.20;99.90;;;;;;7222641;32;20902;-75
2022/01/15 08:52:29;;;;;;;17.70;8.63;;;2.30;99.90;;;;;;7217681;32;20170;-76
2022/01/15 08:56:31;;;;;;;18.83;11.02;;;2.30;99.90;;;;;;7223755;32;20144;-75
2022/01/15 09:00:33;;;;;;;20.73;10.13;;;2.10;99.90;;;;;;7235324;32;20241;-76
2022/01/15 09:04:35;;;;;;;17.08;8.63;;;2.20;99.90;;;;;;7236621;32;20120;-76
2022/01/15 09:08:38;;;;;;;19.58;11.75;;;2.30;99.90;;;;;;7241322;32;20125;-75
2022/01/15 09:12:40;;;;;;;15.32;7.97;;;2.40;99.90;;;;;;7225233;32;20128;-76
2022/01/15 09:17:02;;;;;;;15.77;8.68;;;2.30;99.90;;;;;;7199736;32;20191;-76
2022/01/15 09:21:05;;;;;;;15.65;8.40;;;2.40;99.90;;;;;;7210787;32;20131;-76
2022/01/15 09:25:08;;;;;;;15.70;8.18;;;2.40;99.90;;;;;;7235435;32;20580;-76
2022/01/15 09:33:34;;;;;;;17.80;9.18;;;2.50;99.90;;;;;;7228998;32;20232;-76
2022/01/15 09:37:36;;;;;;;14.75;8.00;;;2.40;99.90;;;;;;7237422;32;20240;-76
2022/01/15 09:41:45;;;;;;;15.20;8.13;;;2.70;99.90;;;;;;7225903;32;20132;-76
2022/01/15 09:45:47;;;;;;;17.98;8.27;;;2.60;99.90;;;;;;7227785;32;20253;-75
2022/01/15 09:49:52;;;;;;;13.57;7.20;;;2.70;99.90;;;;;;7224321;32;20117;-78
2022/01/15 09:53:54;;;;;;;12.75;7.18;;;2.80;99.90;;;;;;7227169;32;20199;-77
2022/01/15 09:57:56;;;;;;;12.48;7.45;;;2.90;99.90;;;;;;7224312;32;20443;-76
2022/01/15 10:02:02;;;;;;;13.70;7.78;;;2.90;99.90;;;;;;7217926;32;20205;-75
2022/01/15 10:06:05;;;;;;;12.60;7.55;;;2.90;99.90;;;;;;7231622;32;20120;-76
2022/01/15 10:10:16;;;;;;;11.18;6.85;;;2.90;99.90;;;;;;7216317;32;20121;-78
2022/01/15 10:14:26;;;;;;;15.88;7.12;;;2.90;99.90;;;;;;7221988;32;20113;-77
2022/01/15 10:18:30;;;;;;;12.48;7.50;;;2.90;99.90;;;;;;7211418;32;20172;-75
2022/01/15 10:22:35;;;;;;;12.13;7.20;;;2.80;99.90;;;;;;7234668;32;20538;-80
2022/01/15 10:26:39;;;;;;;10.70;6.60;;;2.80;99.90;;;;;;7231443;32;20286;-76
2022/01/15 10:30:44;;;;;;;11.43;6.78;;;2.80;99.90;;;;;;7216349;32;20136;-74
2022/01/15 10:34:46;;;;;;;10.18;6.28;;;2.90;99.90;;;;;;7208789;32;20204;-81
2022/01/15 10:38:48;;;;;;;10.05;6.03;;;3.00;99.90;;;;;;7209315;32;20616;-77
2022/01/15 10:43:26;;;;;;;12.80;6.70;;;3.10;99.90;;;;;;7208231;32;20120;-79
2022/01/15 10:47:28;;;;;;;;;;;3.20;99.90;;;;;;7215118;32;20350;-77
2022/01/15 10:51:30;;;;;;;10.48;5.72;;;3.30;99.90;;;;;;7211259;32;20087;-74
2022/01/15 10:55:40;;;;;;;9.00;5.93;;;3.30;99.90;;;;;;7231627;32;20116;-79
2022/01/15 11:00:14;;;;;;;8.73;5.57;;;3.40;99.90;;;;;;7229192;32;20522;-82
2022/01/15 11:04:33;;;;;;;11.68;6.10;;;3.40;99.90;;;;;;7237018;32;20139;-78
2022/01/15 11:08:37;;;;;;;8.63;5.65;;;3.40;99.90;;;;;;7227365;32;20481;-83
2022/01/15 11:12:39;;;;;;;9.02;6.30;;;3.50;99.90;;;;;;7216670;32;20210;-76
2022/01/15 11:16:40;;;;;;;8.90;5.82;;;3.40;99.90;;;;;;7218430;32;20112;-78
2022/01/15 11:20:46;;;;;;;9.77;6.28;;;3.50;99.90;;;;;;7206503;32;20514;-76
2022/01/15 11:24:49;;;;;;;9.65;6.18;;;3.40;99.90;;;;;;7223757;32;20450;-75
2022/01/15 11:28:53;;;;;;;9.18;5.72;;;3.30;99.90;;;;;;7221549;32;20141;-78
2022/01/15 11:32:55;;;;;;;10.57;6.05;;;3.40;99.90;;;;;;7225390;32;20596;-75
2022/01/15 11:36:57;;;;;;;8.93;5.55;;;3.50;99.90;;;;;;7205326;32;20121;-77
2022/01/15 11:40:59;;;;;;;9.57;6.75;;;3.60;99.90;;;;;;7231891;32;20184;-77
2022/01/15 11:45:00;;;;;;;11.12;6.28;;;3.70;99.90;;;;;;7214792;32;20135;-76
2022/01/15 11:49:33;;;;;;;10.38;6.55;;;3.80;99.90;;;;;;7230131;32;20463;-76
2022/01/15 11:53:53;;;;;;;8.43;5.65;;;3.80;99.90;;;;;;7213881;32;20133;-77
2022/01/15 11:57:58;;;;;;;9.25;5.93;;;3.90;99.90;;;;;;7240193;32;20162;-75
2022/01/15 12:02:02;;;;;;;8.32;5.62;;;3.90;99.90;;;;;;7216886;32;20125;-75
2022/01/15 12:06:04;;;;;;;8.75;5.65;;;3.90;99.90;;;;;;7214816;32;20176;-78
2022/01/15 12:10:09;;;;;;;8.07;5.47;;;3.90;99.90;;;;;;7235961;32;20173;-75
2022/01/15 12:14:11;;;;;;;8.38;5.37;;;3.90;99.90;;;;;;7232745;32;20135;-77
2022/01/15 12:18:21;;;;;;;8.45;5.72;;;3.90;99.90;;;;;;7234530;32;20121;-76
2022/01/15 12:22:39;;;;;;;10.13;5.90;;;3.80;99.90;;;;;;7220011;32;20117;-76
2022/01/15 12:26:59;;;;;;;10.27;5.90;;;3.90;99.90;;;;;;7221037;32;20244;-76
2022/01/15 12:31:01;;;;;;;8.07;5.87;;;3.90;99.90;;;;;;7206239;32;20195;-76
2022/01/15 12:35:10;;;;;;;9.63;6.00;;;3.90;99.90;;;;;;7233519;32;20116;-75
2022/01/15 12:39:12;;;;;;;8.40;5.62;;;4.00;99.90;;;;;;7214847;32;20715;-75
2022/01/15 12:43:18;;;;;;;8.82;6.18;;;3.90;99.90;;;;;;7232848;32;20183;-77
2022/01/15 12:47:21;;;;;;;8.93;5.78;;;4.00;99.90;;;;;;7230952;32;20397;-76
2022/01/15 12:51:24;;;;;;;8.32;5.85;;;4.10;99.90;;;;;;7225571;32;20519;-74
2022/01/15 12:55:34;;;;;;;8.48;5.40;;;4.00;99.90;;;;;;7227797;32;20190;-77
2022/01/15 12:59:38;;;;;;;9.23;6.18;;;4.00;99.90;;;;;;7216140;32;20136;-76
2022/01/15 13:03:40;;;;;;;8.95;5.68;;;4.10;99.90;;;;;;7251314;32;20166;-78
2022/01/15 13:07:50;;;;;;;9.60;5.53;;;4.00;99.90;;;;;;7244019;32;20116;-75
2022/01/15 13:11:58;;;;;;;10.07;5.87;;;3.90;99.90;;;;;;7222673;32;20173;-76
2022/01/15 13:16:14;;;;;;;7.95;5.80;;;4.00;99.90;;;;;;7235836;32;20128;-79
2022/01/15 13:20:25;;;;;;;8.20;5.78;;;4.10;99.90;;;;;;7231705;32;20984;-75
2022/01/15 13:24:27;;;;;;;9.93;6.28;;;4.10;99.90;;;;;;7223005;32;20584;-76
2022/01/15 13:28:29;;;;;;;9.18;5.85;;;4.10;99.90;;;;;;7221863;32;20247;-77
2022/01/15 13:32:31;;;;;;;8.82;5.93;;;4.00;99.90;;;;;;7230156;32;20117;-77
2022/01/15 13:36:32;;;;;;;10.45;6.62;;;4.10;99.90;;;;;;7227002;32;20116;-75
2022/01/15 13:40:36;;;;;;;11.35;6.43;;;4.10;99.90;;;;;;7219007;32;20128;-76
2022/01/15 13:44:38;;;;;;;9.43;6.47;;;4.10;99.90;;;;;;7219700;32;20238;-75
2022/01/15 13:48:44;;;;;;;9.73;6.05;;;4.10;99.90;;;;;;7233799;32;20188;-79
2022/01/15 13:53:05;;;;;;;8.23;6.07;;;4.20;99.90;;;;;;7223780;32;20140;-76
2022/01/15 13:57:13;;;;;;;12.23;7.28;;;4.10;99.90;;;;;;7216529;32;20136;-75
2022/01/15 14:01:18;;;;;;;9.00;5.45;;;4.10;99.90;;;;;;7214217;32;20219;-77
2022/01/15 14:05:24;;;;;;;8.30;5.75;;;4.30;99.90;;;;;;7235724;32;20195;-77
2022/01/15 14:09:28;;;;;;;9.13;5.87;;;4.30;99.90;;;;;;7223079;32;20121;-77
2022/01/15 14:13:29;;;;;;;9.77;6.03;;;4.40;99.90;;;;;;7211157;32;20113;-78
2022/01/15 14:17:33;;;;;;;8.43;5.65;;;4.40;99.90;;;;;;7234967;32;20131;-77
2022/01/15 14:25:44;;;;;;;9.77;6.30;;;4.50;99.90;;;;;;7224980;32;20227;-75
2022/01/15 14:29:47;;;;;;;8.25;5.12;;;4.40;99.90;;;;;;7228051;32;20131;-76
2022/01/15 14:33:50;;;;;;;7.82;4.75;;;4.50;99.90;;;;;;7217473;32;20238;-77
2022/01/15 14:37:52;;;;;;;8.25;5.47;;;4.50;99.90;;;;;;7222809;32;20203;-77
2022/01/15 14:41:54;;;;;;;6.95;5.00;;;4.50;99.90;;;;;;7217984;32;20678;-76
2022/01/15 14:45:56;;;;;;;8.52;5.40;;;4.40;99.90;;;;;;7218643;32;20480;-75
2022/01/15 14:49:58;;;;;;;6.55;4.60;;;4.20;99.90;;;;;;7219289;32;20215;-76
2022/01/15 14:54:00;;;;;;;9.73;5.85;;;4.20;99.90;;;;;;7219027;32;20128;-79
2022/01/15 14:58:03;;;;;;;11.68;6.03;;;4.10;99.90;;;;;;7216611;32;20156;-76
2022/01/15 15:02:05;;;;;;;8.50;6.03;;;3.90;99.90;;;;;;7240726;32;20139;-76
2022/01/15 15:06:16;;;;;;;9.20;6.12;;;3.80;99.90;;;;;;7240318;32;20439;-75
2022/01/15 15:10:18;;;;;;;11.32;6.12;;;3.90;99.90;;;;;;7231069;32;20965;-74
2022/01/15 15:14:20;;;;;;;10.63;7.05;;;3.80;99.90;;;;;;7222063;32;20251;-75
2022/01/15 15:18:22;;;;;;;11.18;7.28;;;3.80;99.90;;;;;;7221132;32;20204;-75
2022/01/15 15:22:24;;;;;;;9.27;6.40;;;3.90;99.90;;;;;;7212275;32;20874;-75
2022/01/15 15:26:26;;;;;;;9.68;6.20;;;3.90;99.90;;;;;;7214219;32;20210;-75
2022/01/15 15:30:28;;;;;;;9.52;6.30;;;3.90;99.90;;;;;;7218119;32;20436;-75
2022/01/15 15:34:30;;;;;;;10.93;7.68;;;3.80;99.90;;;;;;7214759;32;20566;-76
2022/01/15 15:38:33;;;;;;;9.05;6.22;;;3.80;99.90;;;;;;7236934;32;20120;-76
2022/01/15 15:42:36;;;;;;;12.45;7.45;;;3.80;99.90;;;;;;7233046;32;20173;-75
2022/01/15 15:46:39;;;;;;;10.25;7.28;;;3.80;99.90;;;;;;7221573;32;20724;-74
2022/01/15 15:50:44;;;;;;;10.52;6.87;;;3.70;99.90;;;;;;7230745;32;20144;-75
2022/01/15 15:54:46;;;;;;;8.85;6.07;;;3.70;99.90;;;;;;7232897;32;20959;-74
2022/01/15 15:58:48;;;;;;;11.10;7.25;;;3.80;99.90;;;;;;7245222;32;20224;-75
2022/01/15 16:02:51;;;;;;;13.30;8.27;;;3.70;99.90;;;;;;7240440;32;20580;-74
2022/01/15 16:06:53;;;;;;;11.23;7.43;;;3.60;99.90;;;;;;7236529;32;20151;-77
2022/01/15 16:10:55;;;;;;;11.40;7.72;;;3.70;99.90;;;;;;7233647;32;20142;-75
2022/01/15 16:14:57;;;;;;;12.63;8.35;;;3.60;99.90;;;;;;7216521;32;20200;-78
2022/01/15 16:18:59;;;;;;;12.75;8.30;;;3.60;99.90;;;;;;7232750;32;20208;-77
2022/01/15 16:23:00;;;;;;;11.85;8.15;;;3.60;99.90;;;;;;7215993;32;20113;-78
2022/01/15 16:27:03;;;;;;;12.57;8.30;;;3.70;99.90;;;;;;7224534;32;20219;-76
2022/01/15 16:31:05;;;;;;;14.68;8.98;;;3.60;99.90;;;;;;7219857;32;20136;-75
2022/01/15 16:35:07;;;;;;;12.05;8.90;;;3.60;99.90;;;;;;7211908;32;20113;-74
2022/01/15 16:39:09;;;;;;;13.35;9.30;;;3.60;99.90;;;;;;7231881;32;20124;-77
2022/01/15 16:43:11;;;;;;;13.60;9.43;;;3.60;99.90;;;;;;7234902;32;20120;-77
2022/01/15 16:47:13;;;;;;;15.77;9.45;;;3.50;99.90;;;;;;7225675;32;20846;-76
2022/01/15 16:51:15;;;;;;;15.48;10.55;;;3.50;99.90;;;;;;7242921;32;20139;-77
2022/01/15 16:55:18;;;;;;;16.83;10.95;;;3.40;99.90;;;;;;7241367;32;20167;-75
2022/01/15 16:59:21;;;;;;;16.60;11.77;;;3.30;99.90;;;;;;7233546;32;20112;-76
2022/01/15 17:03:23;;;;;;;15.18;9.95;;;3.30;99.90;;;;;;7232724;32;20463;-76
2022/01/15 17:07:25;;;;;;;15.15;10.32;;;3.40;99.90;;;;;;7221661;32;20129;-76
2022/01/15 17:11:27;;;;;;;15.80;11.15;;;3.30;99.90;;;;;;7232569;32;20112;-75
2022/01/15 17:15:29;;;;;;;16.65;10.32;;;3.40;99.90;;;;;;7234612;32;20195;-77
2022/01/15 17:19:31;;;;;;;14.27;10.68;;;3.40;99.90;;;;;;7230647;32;20144;-76
2022/01/15 17:23:32;;;;;;;17.73;11.65;;;3.40;99.90;;;;;;7222755;32;20125;-76
2022/01/15 17:27:35;;;;;;;17.10;10.68;;;3.40;99.90;;;;;;7221121;32;20139;-75
2022/01/15 17:31:37;;;;;;;15.77;10.88;;;3.50;99.90;;;;;;7229481;32;20184;-75
2022/01/15 17:35:39;;;;;;;17.27;10.95;;;3.40;99.90;;;;;;7235682;32;20128;-76
2022/01/15 17:39:40;;;;;;;17.52;11.35;;;3.40;99.90;;;;;;7227088;32;20229;-75
2022/01/15 17:43:42;;;;;;;19.37;11.48;;;3.30;99.90;;;;;;7221075;32;20109;-76
2022/01/15 17:47:44;;;;;;;17.33;11.32;;;3.30;99.90;;;;;;7234500;32;20602;-75
2022/01/15 17:52:05;;;;;;;17.25;11.35;;;3.20;99.90;;;;;;7227942;32;20109;-75
2022/01/15 17:56:08;;;;;;;17.23;11.30;;;3.20;99.90;;;;;;7214048;32;20494;-75
2022/01/15 18:00:10;;;;;;;18.70;12.00;;;3.20;99.90;;;;;;7207395;32;20541;-75
2022/01/15 18:04:15;;;;;;;17.45;12.48;;;3.20;99.90;;;;;;7216696;32;20112;-76
2022/01/15 18:08:17;;;;;;;19.75;12.30;;;3.10;99.90;;;;;;7219141;32;20117;-76
2022/01/15 18:12:19;;;;;;;16.55;11.90;;;3.10;99.90;;;;;;7228992;32;20200;-75
2022/01/15 18:16:21;;;;;;;18.35;12.60;;;3.10;99.90;;;;;;7228418;32;20291;-75
2022/01/15 18:20:24;;;;;;;22.00;13.23;;;3.10;99.90;;;;;;7219704;32;20257;-75
2022/01/15 18:24:27;;;;;;;22.15;14.57;;;3.20;99.90;;;;;;7221246;32;20114;-75
2022/01/15 18:28:28;;;;;;;20.65;13.68;;;3.20;99.90;;;;;;7213696;32;20286;-75
2022/01/15 18:32:30;;;;;;;18.58;11.98;;;3.10;99.90;;;;;;7228959;32;20536;-75
2022/01/15 18:36:32;;;;;;;17.58;12.18;;;3.10;99.90;;;;;;7209609;32;20124;-77
2022/01/15 18:40:34;;;;;;;18.60;12.30;;;3.10;99.90;;;;;;7216222;32;20161;-74
2022/01/15 18:44:41;;;;;;;17.98;12.40;;;3.10;99.90;;;;;;7235680;32;20143;-75
2022/01/15 18:48:43;;;;;;;21.17;12.15;;;3.10;99.90;;;;;;7231141;32;20178;-74
2022/01/15 18:52:45;;;;;;;20.12;13.13;;;3.10;99.90;;;;;;7218617;32;20109;-75
2022/01/15 18:56:48;;;;;;;19.42;12.85;;;3.10;99.90;;;;;;7235199;32;20148;-74
2022/01/15 19:00:49;;;;;;;18.98;12.68;;;3.10;99.90;;;;;;7220936;32;20211;-75
2022/01/15 19:04:51;;;;;;;20.85;13.20;;;3.20;99.90;;;;;;7225436;32;20768;-75
2022/01/15 19:08:53;;;;;;;23.38;14.90;;;3.10;99.90;;;;;;7234069;32;20597;-76
2022/01/15 19:12:55;;;;;;;21.45;14.70;;;3.00;99.90;;;;;;7221769;32;20583;-75
2022/01/15 19:16:57;;;;;;;21.75;14.65;;;3.10;99.90;;;;;;7235827;32;20433;-75
2022/01/15 19:21:00;;;;;;;21.90;15.05;;;3.00;99.90;;;;;;7231791;32;20263;-75
2022/01/15 19:25:03;;;;;;;21.83;14.30;;;3.10;99.90;;;;;;7221294;32;20519;-76
2022/01/15 19:29:05;;;;;;;21.50;13.23;;;3.10;99.90;;;;;;7234402;32;20140;-75
2022/01/15 19:33:08;;;;;;;20.42;12.52;;;3.20;99.90;;;;;;7238895;32;20581;-75
2022/01/15 19:37:10;;;;;;;22.25;13.30;;;3.10;99.90;;;;;;7226304;32;20196;-76
2022/01/15 19:41:12;;;;;;;21.23;13.82;;;3.10;99.90;;;;;;7219178;32;20133;-74
2022/01/15 19:45:16;;;;;;;19.48;12.88;;;3.10;99.90;;;;;;7222180;32;20120;-75
2022/01/15 19:49:18;;;;;;;20.25;12.63;;;3.10;99.90;;;;;;7220107;32;20113;-75
2022/01/15 19:53:22;;;;;;;19.92;13.60;;;3.00;99.90;;;;;;7231048;32;20538;-76
2022/01/15 19:57:24;;;;;;;20.98;14.18;;;3.00;99.90;;;;;;7218141;32;20307;-76
2022/01/15 20:01:26;;;;;;;22.30;14.55;;;3.00;99.90;;;;;;7238192;32;20116;-76
2022/01/15 20:05:29;;;;;;;22.52;14.60;;;3.10;99.90;;;;;;7219494;32;20209;-76
2022/01/15 20:09:31;;;;;;;22.30;13.80;;;3.10;99.90;;;;;;7235443;32;20132;-76
2022/01/15 20:13:32;;;;;;;22.10;13.85;;;3.00;99.90;;;;;;7225935;32;20109;-76
2022/01/15 20:17:35;;;;;;;20.88;13.05;;;3.00;99.90;;;;;;7221943;32;20471;-77
2022/01/15 20:21:37;;;;;;;20.42;13.43;;;3.00;99.90;;;;;;7228733;32;20117;-76
2022/01/15 20:25:39;;;;;;;19.87;12.50;;;3.00;99.90;;;;;;7237558;32;20116;-76
2022/01/15 20:29:41;;;;;;;21.60;14.30;;;2.90;99.90;;;;;;7215556;32;20174;-76
2022/01/15 20:33:44;;;;;;;20.60;13.50;;;2.90;99.90;;;;;;7242459;32;20195;-75
2022/01/15 20:37:46;;;;;;;20.60;13.00;;;2.80;99.90;;;;;;7225629;32;20203;-75
2022/01/15 20:41:48;;;;;;;21.37;12.70;;;2.80;99.90;;;;;;7210631;32;20113;-76
2022/01/15 20:45:50;;;;;;;19.65;12.23;;;2.80;99.90;;;;;;7224815;32;20211;-76
2022/01/15 20:49:52;;;;;;;18.70;12.10;;;2.90;99.90;;;;;;7244542;32;20144;-75
2022/01/15 20:53:54;;;;;;;20.08;11.90;;;2.90;99.90;;;;;;7240526;32;20128;-76
2022/01/15 20:57:56;;;;;;;14.80;9.88;;;2.90;99.90;;;;;;7230966;32;20202;-77
2022/01/15 21:01:58;;;;;;;18.20;10.68;;;2.80;99.90;;;;;;7232668;32;20113;-78
2022/01/15 21:06:02;;;;;;;15.57;10.18;;;2.90;99.90;;;;;;7230912;32;20155;-76
2022/01/15 21:10:05;;;;;;;14.05;9.43;;;2.90;99.90;;;;;;7237895;32;20140;-76
2022/01/15 21:14:08;;;;;;;16.67;10.18;;;2.80;99.90;;;;;;7243231;32;20152;-76
2022/01/15 21:18:10;;;;;;;15.65;10.10;;;2.80;99.90;;;;;;7236376;32;20348;-76
2022/01/15 21:22:12;;;;;;;17.02;10.52;;;2.80;99.90;;;;;;7237199;32;20117;-75
2022/01/15 21:26:14;;;;;;;15.77;9.48;;;2.80;99.90;;;;;;7218486;32;20502;-77
2022/01/15 21:30:17;;;;;;;18.77;10.25;;;2.70;99.90;;;;;;7227465;32;20167;-77